Time;durP1;ratioP1;P1;durP2;ratioP2;P2;SDS_P1;SDS_P2;PMS_P1;PMS_P2;Temp;Humidity;BMP_temperature;BMP_pressure;BME280_temperature;BME280_humidity;BME280_pressure;Samples;Min_cycle;Max_cycle;Signal;HPM_P1;HPM_P2
2022/05/02 00:02:26;;;;;;;16.67;11.93;;;;;6.60;101581.00;;;;10472456;28;20315;-82
2022/05/02 00:07:28;;;;;;;19.77;11.43;;;;;6.50;101567.00;;;;10488090;28;20250;-81
2022/05/02 00:12:30;;;;;;;18.93;11.73;;;;;6.40;101568.00;;;;10487734;28;20193;-82
2022/05/02 00:22:53;;;;;;;22.87;14.10;;;;;6.30;101563.00;;;;10487379;28;20242;-82
2022/05/02 00:27:56;;;;;;;20.03;15.00;;;;;6.20;101553.00;;;;10508808;28;20257;-81
2022/05/02 00:32:58;;;;;;;18.37;12.73;;;;;6.10;101553.00;;;;10548213;28;20913;-82
2022/05/02 00:38:00;;;;;;;19.70;13.80;;;;;6.10;101553.00;;;;10518523;28;20212;-82
2022/05/02 00:43:02;;;;;;;19.67;13.80;;;;;6.00;101543.00;;;;10537178;28;20246;-82
2022/05/02 00:48:05;;;;;;;20.67;14.57;;;;;6.00;101535.00;;;;10537636;28;20237;-82
2022/05/02 00:53:13;;;;;;;19.40;14.53;;;;;5.90;101538.00;;;;10497854;28;20212;-81
2022/05/02 00:58:16;;;;;;;19.23;14.90;;;;;5.80;101522.00;;;;10478095;28;20205;-82
2022/05/02 01:03:18;;;;;;;22.90;15.40;;;;;5.70;101526.00;;;;10471180;28;20202;-82
2022/05/02 01:08:20;;;;;;;20.53;14.80;;;;;5.70;101526.00;;;;10437505;28;20530;-81
2022/05/02 01:13:36;;;;;;;21.87;15.60;;;;;5.70;101522.00;;;;10453731;28;20603;-82
2022/05/02 01:18:39;;;;;;;25.17;16.27;;;;;5.60;101527.00;;;;10454264;28;20687;-82
2022/05/02 01:23:43;;;;;;;22.33;16.83;;;;;5.50;101520.00;;;;10472764;28;20221;-82
2022/05/02 01:28:47;;;;;;;25.57;17.43;;;;;5.50;101522.00;;;;10476780;28;20247;-82
2022/05/02 01:33:49;;;;;;;22.63;17.20;;;;;5.40;101521.00;;;;10461006;28;20235;-82
2022/05/02 01:38:52;;;;;;;29.60;19.73;;;;;5.30;101513.00;;;;10449914;28;20205;-83
2022/05/02 01:43:54;;;;;;;32.27;21.33;;;;;5.30;101512.00;;;;10450114;28;20218;-83
2022/05/02 01:48:57;;;;;;;26.17;19.37;;;;;5.30;101514.00;;;;10468854;28;20201;-82
2022/05/02 01:53:59;;;;;;;30.57;21.03;;;;;5.30;101508.00;;;;10491642;28;20230;-82
2022/05/02 01:59:01;;;;;;;28.30;18.90;;;;;5.20;101511.00;;;;10491703;28;20212;-82
2022/05/02 02:09:27;;;;;;;30.57;21.57;;;;;5.10;101504.00;;;;10460881;28;20197;-83
2022/05/02 02:14:28;;;;;;;27.30;19.67;;;;;5.00;101507.00;;;;10491283;28;20193;-82
2022/05/02 02:19:30;;;;;;;25.83;19.47;;;;;5.00;101506.00;;;;10507358;28;20209;-82
2022/05/02 02:24:32;;;;;;;28.27;19.30;;;;;5.00;101508.00;;;;10519147;28;20184;-82
2022/05/02 02:29:34;;;;;;;27.80;18.63;;;;;4.90;101502.00;;;;10517846;28;20192;-82
2022/05/02 02:34:36;;;;;;;26.37;18.50;;;;;4.80;101502.00;;;;10518052;28;20192;-83
2022/05/02 02:39:38;;;;;;;27.17;19.27;;;;;4.70;101502.00;;;;10517031;28;20239;-82
2022/05/02 02:44:39;;;;;;;26.40;17.60;;;;;4.70;101494.00;;;;10516482;28;20265;-83
2022/05/02 02:49:41;;;;;;;28.50;19.10;;;;;4.60;101491.00;;;;10533476;28;20192;-82
2022/05/02 02:54:43;;;;;;;31.33;19.93;;;;;4.60;101482.00;;;;10550322;28;20716;-83
2022/05/02 02:59:46;;;;;;;29.53;20.80;;;;;4.60;101489.00;;;;10521142;27;20621;-82
2022/05/02 03:10:08;;;;;;;35.73;22.60;;;;;4.40;101482.00;;;;10574775;27;20191;-82
2022/05/02 03:15:11;;;;;;;29.37;20.17;;;;;4.40;101480.00;;;;10532600;28;20267;-83
2022/05/02 03:20:13;;;;;;;36.00;24.33;;;;;4.40;101474.00;;;;10531743;28;20220;-82
2022/05/02 03:25:15;;;;;;;33.93;21.53;;;;;4.40;101475.00;;;;10515717;28;20199;-82
2022/05/02 03:30:17;;;;;;;32.60;22.33;;;;;4.30;101470.00;;;;10515891;28;20659;-82
2022/05/02 03:35:22;;;;;;;34.70;21.83;;;;;4.30;101482.00;;;;10548371;28;20195;-82
2022/05/02 03:40:24;;;;;;;33.63;22.43;;;;;4.20;101480.00;;;;10515838;28;20277;-82
2022/05/02 03:45:26;;;;;;;34.83;22.57;;;;;4.10;101479.00;;;;10532142;28;20192;-82
2022/05/02 03:50:28;;;;;;;40.27;24.60;;;;;4.10;101481.00;;;;10531807;28;20221;-82
2022/05/02 03:55:30;;;;;;;36.47;24.40;;;;;4.10;101483.00;;;;10515694;28;20199;-82
2022/05/02 04:00:32;;;;;;;38.07;25.70;;;;;4.10;101479.00;;;;10515271;28;20748;-82
2022/05/02 04:05:34;;;;;;;35.27;23.73;;;;;4.00;101483.00;;;;10531756;28;20655;-84
2022/05/02 04:10:36;;;;;;;40.43;26.60;;;;;4.00;101491.00;;;;10517819;28;20196;-83
2022/05/02 04:15:38;;;;;;;45.53;29.20;;;;;4.10;101483.00;;;;10540290;28;20200;-82
2022/05/02 04:20:40;;;;;;;48.53;30.20;;;;;4.10;101482.00;;;;10523893;28;20289;-82
2022/05/02 04:25:42;;;;;;;38.80;26.13;;;;;4.10;101486.00;;;;10540211;28;20196;-82
2022/05/02 04:30:44;;;;;;;42.70;28.40;;;;;4.10;101483.00;;;;10552529;27;20195;-82
2022/05/02 04:35:46;;;;;;;46.23;29.20;;;;;4.20;101489.00;;;;10565370;27;20196;-82
2022/05/02 04:40:48;;;;;;;41.60;26.93;;;;;4.30;101489.00;;;;10565112;27;20624;-83
2022/05/02 04:45:50;;;;;;;42.43;28.50;;;;;4.50;101488.00;;;;10581133;27;20719;-82
2022/05/02 04:50:52;;;;;;;47.43;28.47;;;;;4.60;101495.00;;;;10554517;27;20257;-83
2022/05/02 04:55:54;;;;;;;47.63;30.57;;;;;4.70;101483.00;;;;10538942;28;20192;-83
2022/05/02 05:00:55;;;;;;;46.83;31.67;;;;;4.90;101495.00;;;;10536096;27;20223;-83
2022/05/02 05:05:57;;;;;;;50.57;33.57;;;;;5.10;101492.00;;;;10580615;27;20642;-83
2022/05/02 05:11:20;;;;;;;50.20;34.70;;;;;5.40;101487.00;;;;10580528;27;20199;-83
2022/05/02 05:16:39;;;;;;;53.87;34.50;;;;;5.80;101488.00;;;;10579842;27;20176;-83
2022/05/02 05:21:50;;;;;;;53.63;35.00;;;;;6.20;101493.00;;;;10563008;27;20223;-82
2022/05/02 05:27:16;;;;;;;62.73;37.53;;;;;6.50;101491.00;;;;10535228;28;20199;-83
2022/05/02 05:32:38;;;;;;;56.33;36.60;;;;;7.00;101489.00;;;;10554852;28;20241;-83
2022/05/02 05:38:07;;;;;;;51.27;38.03;;;;;7.40;101490.00;;;;10523404;28;20200;-83
2022/05/02 05:43:14;;;;;;;46.70;32.97;;;;;7.90;101492.00;;;;10539150;28;20277;-84
2022/05/02 05:48:27;;;;;;;49.50;33.27;;;;;8.30;101496.00;;;;10538641;28;20188;-83
2022/05/02 05:53:50;;;;;;;46.53;32.90;;;;;8.80;101501.00;;;;10539802;27;20196;-82
2022/05/02 05:59:27;;;;;;;42.57;31.53;;;;;9.60;101492.00;;;;10502334;27;20203;-82
2022/05/02 06:04:31;;;;;;;37.53;28.30;;;;;10.00;101494.00;;;;10533853;28;20249;-83
2022/05/02 06:09:36;;;;;;;38.43;28.00;;;;;10.40;101504.00;;;;10513262;28;20189;-82
2022/05/02 06:18:27;;;;;;;32.93;26.80;;;;;10.90;101502.00;;;;10515519;28;20312;-83
2022/05/02 06:20:03;;;;;;;36.90;26.37;;;;;11.30;101507.00;;;;10498930;28;20731;-82
2022/05/02 06:25:13;;;;;;;29.90;25.40;;;;;11.90;101498.00;;;;10524599;28;20882;-81
2022/05/02 06:30:15;;;;;;;34.60;26.00;;;;;12.60;101517.00;;;;10489817;28;20206;-82
2022/05/02 06:35:18;;;;;;;30.33;23.83;;;;;13.20;101508.00;;;;10537571;28;20214;-82
2022/05/02 06:40:31;;;;;;;27.87;22.53;;;;;13.80;101517.00;;;;10514223;28;20235;-82
2022/05/02 06:45:49;;;;;;;29.73;21.17;;;;;14.20;101511.00;;;;10529186;28;20188;-81
2022/05/02 06:51:14;;;;;;;26.67;20.20;;;;;14.60;101524.00;;;;10564745;28;20188;-81
2022/05/02 06:56:46;;;;;;;27.13;22.40;;;;;14.80;101525.00;;;;10536722;28;20197;-82
2022/05/02 07:02:12;;;;;;;24.03;21.07;;;;;15.30;101512.00;;;;10488802;28;20308;-82
2022/05/02 07:07:17;;;;;;;27.67;21.30;;;;;15.70;101511.00;;;;10513346;28;20196;-81
2022/05/02 07:12:23;;;;;;;23.10;20.47;;;;;16.20;101512.00;;;;10520165;28;20193;-82
2022/05/02 07:17:43;;;;;;;29.30;21.55;;;;;16.70;101510.00;;;;10489327;28;20193;-81
2022/05/02 07:23:30;;;;;;;24.13;19.70;;;;;17.00;101509.00;;;;10490164;28;20243;-80
2022/05/02 07:28:46;;;;;;;28.30;18.83;;;;;17.70;101503.00;;;;10495992;28;20196;-79
2022/05/02 07:33:50;;;;;;;23.13;19.05;;;;;18.20;101514.00;;;;10528466;28;20244;-79
2022/05/02 07:38:59;;;;;;;26.27;18.73;;;;;18.40;101506.00;;;;10524889;28;20606;-79
2022/05/02 07:44:08;;;;;;;22.88;18.90;;;;;18.50;101513.00;;;;10488093;28;20242;-82
2022/05/02 07:49:14;;;;;;;23.20;17.85;;;;;18.60;101502.00;;;;10496029;28;20196;-81
2022/05/02 07:54:20;;;;;;;25.35;16.27;;;;;19.10;101513.00;;;;10494866;28;20685;-81
2022/05/02 07:59:37;;;;;;;19.40;16.60;;;;;19.50;101513.00;;;;10497129;27;20212;-81
2022/05/02 08:04:40;;;;;;;21.42;17.17;;;;;19.50;101509.00;;;;10531595;28;20254;-81
2022/05/02 08:10:03;;;;;;;18.80;16.20;;;;;19.80;101507.00;;;;10508374;28;20606;-82
2022/05/02 08:15:23;;;;;;;18.08;15.63;;;;;20.20;101503.00;;;;10553523;28;20233;-81
2022/05/02 08:20:31;;;;;;;19.23;16.40;;;;;20.50;101508.00;;;;10518316;28;20222;-81
2022/05/02 08:31:21;;;;;;;17.70;14.75;;;;;20.80;101508.00;;;;10535629;28;20249;-81
2022/05/02 08:36:46;;;;;;;15.50;13.35;;;;;20.90;101516.00;;;;10552174;28;20196;-78
2022/05/02 08:42:02;;;;;;;15.52;13.25;;;;;21.20;101508.00;;;;10535051;28;20216;-81
2022/05/02 08:47:19;;;;;;;12.80;11.18;;;;;21.50;101512.00;;;;10551569;28;20195;-81
2022/05/02 08:52:30;;;;;;;14.02;9.77;;;;;21.80;101505.00;;;;10535037;28;20192;-81
2022/05/02 08:57:56;;;;;;;12.68;11.43;;;;;21.90;101509.00;;;;10550082;28;20195;-80
2022/05/02 09:03:26;;;;;;;15.82;13.00;;;;;22.10;101494.00;;;;10542872;28;20251;-81
2022/05/02 09:08:34;;;;;;;14.57;13.07;;;;;22.60;101496.00;;;;10513598;28;20200;-78
2022/05/02 09:14:01;;;;;;;13.38;12.07;;;;;22.50;101501.00;;;;10493116;28;20266;-79
2022/05/02 09:19:25;;;;;;;13.57;12.18;;;;;22.60;101493.00;;;;10510282;28;20193;-79
2022/05/02 09:24:36;;;;;;;16.30;11.77;;;;;22.50;101491.00;;;;10519042;28;20196;-80
2022/05/02 09:30:12;;;;;;;12.50;10.50;;;;;23.10;101485.00;;;;10567648;28;20192;-81
2022/05/02 09:35:18;;;;;;;12.77;11.32;;;;;23.10;101485.00;;;;10509639;28;20600;-82
2022/05/02 09:40:29;;;;;;;14.13;11.02;;;;;22.90;101483.00;;;;10524702;28;20706;-82
2022/05/02 09:51:41;;;;;;;10.40;9.40;;;;;23.70;101475.00;;;;10507376;28;20632;-79
2022/05/02 09:56:47;;;;;;;10.55;9.45;;;;;23.90;101466.00;;;;10506801;28;20185;-82
2022/05/02 10:01:52;;;;;;;11.55;9.55;;;;;24.40;101467.00;;;;10521967;27;20274;-79
2022/05/02 10:06:57;;;;;;;9.82;7.93;;;;;24.10;101464.00;;;;10521840;28;20275;-81
2022/05/02 10:12:18;;;;;;;8.82;7.65;;;;;24.10;101465.00;;;;10488948;28;20196;-81
2022/05/02 10:17:38;;;;;;;10.82;8.57;;;;;24.50;101456.00;;;;10489899;28;20623;-79
2022/05/02 10:22:40;;;;;;;9.15;7.97;;;;;24.50;101444.00;;;;10489979;28;20608;-79
2022/05/02 10:27:54;;;;;;;8.88;7.82;;;;;24.60;101462.00;;;;10490117;28;20302;-80
2022/05/02 10:33:01;;;;;;;9.68;8.68;;;;;24.50;101452.00;;;;10543908;28;20218;-82
2022/05/02 10:38:04;;;;;;;9.70;8.45;;;;;24.70;101450.00;;;;10531360;28;20229;-81
2022/05/02 10:43:08;;;;;;;10.40;8.50;;;;;24.90;101449.00;;;;10514300;28;20690;-80
2022/05/02 10:48:18;;;;;;;8.20;7.22;;;;;25.20;101439.00;;;;10515077;28;20192;-79
2022/05/02 10:53:35;;;;;;;11.20;8.43;;;;;25.50;101440.00;;;;10514706;28;20567;-79
2022/05/02 10:58:44;;;;;;;8.27;7.40;;;;;25.50;101437.00;;;;10530292;28;20237;-79
2022/05/02 11:04:17;;;;;;;8.38;7.07;;;;;25.50;101435.00;;;;10528589;28;20229;-78
2022/05/02 11:09:39;;;;;;;12.30;6.47;;;;;25.60;101431.00;;;;10506688;28;20188;-79
2022/05/02 11:15:05;;;;;;;9.75;7.18;;;;;25.60;101424.00;;;;10505060;28;20306;-81
2022/05/02 11:25:35;;;;;;;10.13;7.63;;;;;25.90;101422.00;;;;10523545;28;20191;-78
2022/05/02 11:30:45;;;;;;;10.98;7.82;;;;;26.10;101418.00;;;;10541685;27;20179;-79
2022/05/02 11:35:49;;;;;;;9.05;7.20;;;;;26.20;101406.00;;;;10554706;28;20187;-81
2022/05/02 11:40:59;;;;;;;10.38;7.00;;;;;26.10;101408.00;;;;10569891;28;20212;-81
2022/05/02 11:46:15;;;;;;;8.75;7.60;;;;;25.30;101391.00;;;;10554296;28;20191;-82
2022/05/02 11:51:45;;;;;;;7.00;6.25;;;;;25.30;101394.00;;;;10571709;28;20202;-79
2022/05/02 11:56:56;;;;;;;9.00;6.57;;;;;25.60;101396.00;;;;10571778;28;20638;-79
2022/05/02 12:02:03;;;;;;;8.07;7.10;;;;;26.10;101396.00;;;;10545430;28;20256;-78
2022/05/02 12:07:13;;;;;;;8.55;7.15;;;;;26.20;101389.00;;;;10512095;28;20203;-79
2022/05/02 12:12:16;;;;;;;7.93;6.10;;;;;25.90;101391.00;;;;10487264;28;20193;-80
2022/05/02 12:17:18;;;;;;;7.00;6.28;;;;;26.20;101392.00;;;;10470427;28;20648;-81
2022/05/02 12:22:26;;;;;;;10.88;7.07;;;;;26.40;101392.00;;;;10486598;28;20217;-79
2022/05/02 12:27:31;;;;;;;9.60;8.25;;;;;26.30;101387.00;;;;10505479;28;20196;-78
2022/05/02 12:32:38;;;;;;;9.30;7.22;;;;;26.20;101374.00;;;;10510343;28;20189;-79
2022/05/02 12:37:44;;;;;;;10.07;7.55;;;;;26.40;101374.00;;;;10511079;28;20574;-78
2022/05/02 12:42:51;;;;;;;8.50;7.10;;;;;26.30;101367.00;;;;10493543;28;20217;-79
2022/05/02 12:48:00;;;;;;;8.57;5.97;;;;;26.50;101365.00;;;;10529263;28;20196;-79
2022/05/02 12:53:05;;;;;;;7.47;5.38;;;;;26.20;101364.00;;;;10552401;28;20200;-79
2022/05/02 13:03:32;;;;;;;10.45;7.68;;;;;26.10;101364.00;;;;10515670;28;20229;-79
2022/05/02 13:08:41;;;;;;;7.40;6.70;;;;;26.10;101359.00;;;;10509977;28;20290;-78
2022/05/02 13:13:47;;;;;;;8.00;7.05;;;;;26.70;101347.00;;;;10493209;28;20188;-80
2022/05/02 13:18:50;;;;;;;9.18;7.57;;;;;27.90;101342.00;;;;10508665;28;20221;-79
2022/05/02 13:23:58;;;;;;;10.02;6.45;;;;;29.60;101335.00;;;;10515160;28;20210;-79
2022/05/02 13:29:03;;;;;;;10.25;6.80;;;;;30.60;101322.00;;;;10551551;28;20214;-79
2022/05/02 13:34:06;;;;;;;9.82;7.53;;;;;31.80;101322.00;;;;10553566;28;20206;-79
2022/05/02 13:39:30;;;;;;;10.30;6.68;;;;;30.40;101342.00;;;;10533860;28;20192;-80
2022/05/02 13:44:57;;;;;;;7.80;7.05;;;;;30.40;101310.00;;;;10525334;28;20228;-79
2022/05/02 13:50:12;;;;;;;8.30;6.75;;;;;27.60;101301.00;;;;10520251;28;20192;-81
2022/05/02 13:55:53;;;;;;;9.32;6.65;;;;;31.60;101300.00;;;;10518990;28;20191;-79
2022/05/02 14:06:30;;;;;;;7.95;7.13;;;;;33.20;101285.00;;;;10508849;28;20246;-79
2022/05/02 14:11:32;;;;;;;6.68;5.97;;;;;30.70;101302.00;;;;10525583;28;20234;-82
2022/05/02 14:16:38;;;;;;;8.82;6.82;;;;;31.50;101278.00;;;;10527024;28;20606;-82
2022/05/02 14:21:46;;;;;;;9.90;7.30;;;;;33.00;101279.00;;;;10507367;28;20239;-81
2022/05/02 14:27:02;;;;;;;9.10;6.93;;;;;33.70;101274.00;;;;10533859;27;20207;-78
2022/05/02 14:32:07;;;;;;;6.40;5.80;;;;;31.90;101295.00;;;;10544457;28;20646;-81
2022/05/02 14:37:10;;;;;;;7.63;6.45;;;;;32.90;101270.00;;;;10513004;28;20234;-79
2022/05/02 14:42:12;;;;;;;8.40;6.80;;;;;34.20;101274.00;;;;10513602;28;20223;-78
2022/05/02 14:47:16;;;;;;;5.82;5.20;;;;;34.50;101271.00;;;;10512549;28;20253;-79
2022/05/02 14:52:20;;;;;;;6.22;5.22;;;;;33.50;101253.00;;;;10530437;28;20828;-79
2022/05/02 14:57:23;;;;;;;7.43;6.70;;;;;33.10;101268.00;;;;10521704;28;20712;-79
2022/05/02 15:02:28;;;;;;;8.40;6.57;;;;;34.10;101261.00;;;;10530364;28;20208;-82
2022/05/02 15:08:01;;;;;;;6.72;5.68;;;;;31.10;101287.00;;;;10546639;28;20193;-82
2022/05/02 15:13:25;;;;;;;8.73;6.60;;;;;26.50;101254.00;;;;10517373;27;20249;-79
2022/05/02 15:40:58;;;;;;;8.77;6.38;;;;;28.60;101232.00;;;;10521063;28;20281;-81
2022/05/02 15:46:12;;;;;;;9.43;6.47;;;;;27.80;101260.00;;;;10509704;28;20216;-80
2022/05/02 15:51:14;;;;;;;9.52;6.18;;;;;24.10;101249.00;;;;10523553;28;20192;-81
2022/05/02 15:56:22;;;;;;;7.20;5.68;;;;;24.10;101249.00;;;;10547906;28;20192;-80
2022/05/02 16:01:37;;;;;;;7.85;6.65;;;;;22.70;101251.00;;;;10545348;28;20220;-81
2022/05/02 16:06:50;;;;;;;10.68;6.85;;;;;21.70;101256.00;;;;10541044;28;20290;-82
2022/05/02 16:11:52;;;;;;;11.70;7.38;;;;;21.20;101244.00;;;;10522345;28;20184;-81
2022/05/02 16:16:56;;;;;;;15.48;11.15;;;;;20.80;101244.00;;;;10524158;28;20201;-81
2022/05/02 16:21:59;;;;;;;8.85;6.20;;;;;20.60;101240.00;;;;10526259;28;20216;-82
2022/05/02 16:27:02;;;;;;;11.07;6.90;;;;;20.20;101241.00;;;;10537911;27;20218;-82
2022/05/02 16:32:06;;;;;;;8.90;6.93;;;;;20.10;101243.00;;;;10555245;28;20184;-82
2022/05/02 16:37:08;;;;;;;9.13;6.13;;;;;20.00;101252.00;;;;10544147;28;20785;-82
2022/05/02 16:42:13;;;;;;;9.45;5.93;;;;;19.90;101241.00;;;;10512233;28;20220;-82
2022/05/02 16:47:17;;;;;;;6.60;5.88;;;;;19.70;101241.00;;;;10500956;28;20199;-81
2022/05/02 16:52:19;;;;;;;9.35;8.32;;;;;19.50;101239.00;;;;10486402;28;20209;-81
2022/05/02 16:57:40;;;;;;;9.07;7.55;;;;;19.50;101253.00;;;;10461036;28;20201;-81
2022/05/02 17:02:45;;;;;;;7.22;5.90;;;;;19.40;101240.00;;;;10490468;28;20227;-80
2022/05/02 17:07:50;;;;;;;6.88;6.03;;;;;19.30;101238.00;;;;10485149;28;20630;-80
2022/05/02 17:12:52;;;;;;;10.27;6.93;;;;;19.10;101234.00;;;;10452334;28;20281;-81
2022/05/02 17:17:54;;;;;;;9.60;6.75;;;;;18.90;101239.00;;;;10435475;28;20266;-80
2022/05/02 17:22:58;;;;;;;11.32;7.85;;;;;18.80;101238.00;;;;10436471;28;20202;-80
2022/05/02 17:28:04;;;;;;;8.85;6.72;;;;;18.70;101231.00;;;;10492255;28;20764;-80
2022/05/02 17:33:09;;;;;;;11.80;7.80;;;;;18.60;101237.00;;;;10478990;28;20190;-80
2022/05/02 17:38:17;;;;;;;11.52;8.15;;;;;18.50;101239.00;;;;10483913;28;20259;-81
2022/05/02 17:43:21;;;;;;;12.02;8.45;;;;;18.40;101239.00;;;;10476443;28;20235;-81
2022/05/02 17:48:29;;;;;;;10.68;8.02;;;;;18.20;101246.00;;;;10486957;28;20287;-82
2022/05/02 17:53:31;;;;;;;16.25;9.13;;;;;18.10;101256.00;;;;10493482;28;20196;-80
2022/05/02 17:58:38;;;;;;;12.25;10.02;;;;;17.90;101258.00;;;;10475457;28;20670;-80
2022/05/02 18:03:45;;;;;;;15.27;8.85;;;;;17.80;101259.00;;;;10514918;28;20679;-80
2022/05/02 18:08:47;;;;;;;12.23;9.18;;;;;17.60;101260.00;;;;10502194;28;20196;-80
2022/05/02 18:13:49;;;;;;;11.63;8.98;;;;;17.40;101258.00;;;;10523319;28;20192;-80
2022/05/02 18:18:59;;;;;;;11.65;8.90;;;;;17.30;101276.00;;;;10494761;28;20196;-80
2022/05/02 18:24:02;;;;;;;14.63;9.02;;;;;17.00;101277.00;;;;10522317;28;20204;-79
2022/05/02 18:29:05;;;;;;;15.52;9.77;;;;;16.60;101284.00;;;;10497775;28;20257;-80
2022/05/02 18:34:10;;;;;;;15.10;10.27;;;;;16.30;101286.00;;;;10499194;27;20708;-80
2022/05/02 18:39:12;;;;;;;13.07;9.77;;;;;16.00;101294.00;;;;10520665;28;20922;-80
2022/05/02 18:44:24;;;;;;;14.03;9.43;;;;;15.70;101288.00;;;;10487528;28;20211;-81
2022/05/02 18:55:10;;;;;;;14.20;9.77;;;;;15.20;101300.00;;;;10445496;28;20200;-81
2022/05/02 19:00:13;;;;;;;14.37;10.03;;;;;15.00;101294.00;;;;10514205;28;20249;-81
2022/05/02 19:05:20;;;;;;;13.63;10.23;;;;;14.80;101305.00;;;;10532675;27;20204;-79
2022/05/02 19:10:23;;;;;;;17.40;11.10;;;;;14.60;101310.00;;;;10549532;27;20677;-79
2022/05/02 19:15:30;;;;;;;18.23;11.10;;;;;14.50;101324.00;;;;10499034;28;20196;-80
2022/05/02 19:21:07;;;;;;;12.83;10.60;;;;;14.30;101319.00;;;;10530665;27;20186;-80
2022/05/02 19:26:12;;;;;;;16.13;10.67;;;;;14.10;101320.00;;;;10517096;28;20257;-80
2022/05/02 19:31:18;;;;;;;16.07;10.57;;;;;14.00;101338.00;;;;10547312;27;20195;-79
2022/05/02 19:42:01;;;;;;;12.53;9.80;;;;;13.70;101343.00;;;;10510305;28;20247;-79
2022/05/02 19:47:09;;;;;;;14.57;10.00;;;;;13.60;101357.00;;;;10508187;28;20199;-79
2022/05/02 19:52:20;;;;;;;12.63;9.43;;;;;13.50;101358.00;;;;10494344;28;20204;-80
2022/05/02 19:57:22;;;;;;;11.17;8.70;;;;;13.30;101361.00;;;;10521393;28;20191;-79
2022/05/02 20:02:26;;;;;;;16.00;8.77;;;;;13.30;101363.00;;;;10520864;28;20201;-79
2022/05/02 20:07:28;;;;;;;11.87;7.97;;;;;13.20;101365.00;;;;10536325;28;20283;-80
2022/05/02 20:12:30;;;;;;;13.23;8.27;;;;;13.10;101372.00;;;;10507033;28;20205;-79
2022/05/02 20:17:32;;;;;;;10.80;7.63;;;;;13.10;101372.00;;;;10509046;28;20245;-80
2022/05/02 20:22:37;;;;;;;9.20;6.90;;;;;13.00;101376.00;;;;10518637;28;20240;-80
2022/05/02 20:27:42;;;;;;;8.87;6.40;;;;;13.00;101380.00;;;;10521975;28;20215;-80
2022/05/02 20:38:04;;;;;;;9.87;6.83;;;;;12.80;101379.00;;;;10506333;28;20214;-80
2022/05/02 20:43:18;;;;;;;11.00;6.93;;;;;12.70;101383.00;;;;10501348;28;20628;-79
2022/05/02 20:48:22;;;;;;;9.13;7.20;;;;;12.60;101377.00;;;;10518244;28;20247;-79
2022/05/02 20:53:26;;;;;;;7.67;6.70;;;;;12.50;101382.00;;;;10493614;28;20204;-78
2022/05/02 20:58:29;;;;;;;10.20;7.20;;;;;12.40;101399.00;;;;10498144;28;20204;-78
2022/05/02 21:03:31;;;;;;;10.27;7.77;;;;;12.30;101393.00;;;;10507997;28;20273;-79
2022/05/02 21:08:34;;;;;;;10.67;7.47;;;;;12.20;101396.00;;;;10499391;28;20764;-79
2022/05/02 21:13:52;;;;;;;10.77;7.03;;;;;12.20;101399.00;;;;10527199;27;20196;-80
2022/05/02 21:19:04;;;;;;;11.00;7.43;;;;;12.10;101410.00;;;;10501218;28;20196;-80
2022/05/02 21:24:15;;;;;;;11.63;7.87;;;;;12.00;101399.00;;;;10508488;28;20253;-80
2022/05/02 21:29:48;;;;;;;11.60;6.83;;;;;11.90;101401.00;;;;10519167;28;20200;-79
2022/05/02 21:35:12;;;;;;;11.33;6.77;;;;;11.80;101398.00;;;;10522416;28;20222;-80
2022/05/02 21:40:16;;;;;;;10.07;6.63;;;;;11.70;101411.00;;;;10496999;28;20242;-79
2022/05/02 21:45:19;;;;;;;9.23;6.73;;;;;11.60;101414.00;;;;10521402;27;20205;-79
2022/05/02 21:50:22;;;;;;;12.10;6.70;;;;;11.50;101407.00;;;;10522274;28;20196;-79
2022/05/02 21:55:25;;;;;;;9.10;6.13;;;;;11.40;101415.00;;;;10524698;28;20249;-79
2022/05/02 22:00:27;;;;;;;8.77;6.67;;;;;11.30;101414.00;;;;10524079;28;20223;-79
2022/05/02 22:05:32;;;;;;;11.27;6.17;;;;;11.20;101412.00;;;;10487145;28;20213;-79
2022/05/02 22:10:34;;;;;;;10.63;6.40;;;;;11.10;101415.00;;;;10498047;28;20219;-79
2022/05/02 22:15:36;;;;;;;8.93;6.57;;;;;11.00;101416.00;;;;10503405;28;20189;-79
2022/05/02 22:20:38;;;;;;;8.83;6.70;;;;;10.90;101418.00;;;;10523111;28;20193;-80
2022/05/02 22:25:40;;;;;;;9.73;6.13;;;;;10.80;101424.00;;;;10488941;28;20215;-79
2022/05/02 22:30:42;;;;;;;8.87;6.30;;;;;10.70;101418.00;;;;10546117;28;20548;-79
2022/05/02 22:35:44;;;;;;;11.83;6.07;;;;;10.60;101422.00;;;;10506081;28;20199;-79
2022/05/02 22:40:46;;;;;;;8.50;6.40;;;;;10.50;101426.00;;;;10490099;28;20212;-79
2022/05/02 22:45:48;;;;;;;9.70;6.60;;;;;10.40;101430.00;;;;10498979;28;20204;-79
2022/05/02 22:50:50;;;;;;;6.83;6.13;;;;;10.30;101423.00;;;;10529720;28;20257;-79
2022/05/02 22:55:52;;;;;;;7.27;6.03;;;;;10.20;101424.00;;;;10488643;28;20184;-79
2022/05/02 23:00:57;;;;;;;9.07;5.80;;;;;10.00;101427.00;;;;10501109;28;20204;-79
2022/05/02 23:06:04;;;;;;;8.53;6.10;;;;;9.90;101424.00;;;;10542778;28;20685;-79
2022/05/02 23:11:07;;;;;;;9.40;6.23;;;;;9.70;101418.00;;;;10545631;28;20238;-79
2022/05/02 23:16:11;;;;;;;11.90;6.47;;;;;9.60;101428.00;;;;10499222;28;20569;-79
2022/05/02 23:21:14;;;;;;;7.27;6.43;;;;;9.60;101419.00;;;;10527405;28;20208;-79
2022/05/02 23:26:17;;;;;;;11.23;6.90;;;;;9.50;101411.00;;;;10496970;28;20568;-79
2022/05/02 23:31:27;;;;;;;11.63;7.17;;;;;9.40;101415.00;;;;10518628;28;20201;-79
2022/05/02 23:36:35;;;;;;;11.37;7.23;;;;;9.40;101414.00;;;;10489796;28;20193;-79
2022/05/02 23:41:44;;;;;;;9.43;6.53;;;;;9.40;101401.00;;;;10493669;28;20675;-79
2022/05/02 23:47:07;;;;;;;9.23;6.57;;;;;9.40;101414.00;;;;10560047;28;20283;-78
2022/05/02 23:52:40;;;;;;;8.43;6.40;;;;;9.30;101413.00;;;;10544629;28;20666;-79
2022/05/02 23:58:04;;;;;;;7.57;5.60;;;;;9.20;101406.00;;;;10519638;28;20203;-79
